createdAt,value
2018-09-13T00:01:13.168Z,90.03
2018-09-13T00:03:41.502Z,89.25
2018-09-13T00:06:09.826Z,89.35
2018-09-13T00:08:38.207Z,89.57
2018-09-13T00:11:06.776Z,89.77
2018-09-13T00:13:35.113Z,90.17
2018-09-13T00:16:04.475Z,89.91
2018-09-13T00:18:32.808Z,89.98
2018-09-13T00:21:01.200Z,89.83
2018-09-13T00:23:29.708Z,89.21
2018-09-13T00:25:58.040Z,89.80
2018-09-13T00:28:26.369Z,88.79
2018-09-13T00:30:54.712Z,89.16
2018-09-13T00:33:23.031Z,89.22
2018-09-13T00:35:51.362Z,89.00
2018-09-13T00:38:19.691Z,88.88
2018-09-13T00:40:48.092Z,89.55
2018-09-13T00:43:16.428Z,89.63
2018-09-13T00:45:44.797Z,89.84
2018-09-13T00:48:13.134Z,89.97
2018-09-13T00:50:41.488Z,90.45
2018-09-13T00:53:10.084Z,89.79
2018-09-13T00:55:38.514Z,89.33
2018-09-13T00:58:06.894Z,89.69
2018-09-13T01:00:35.373Z,90.05
2018-09-13T01:03:03.720Z,90.46
2018-09-13T01:05:32.093Z,90.24
2018-09-13T01:08:01.565Z,90.11
2018-09-13T01:10:29.964Z,90.08
2018-09-13T01:12:58.304Z,90.09
2018-09-13T01:15:26.671Z,90.01
2018-09-13T01:17:55.040Z,90.53
2018-09-13T01:20:23.384Z,91.27
2018-09-13T01:22:51.833Z,91.55
2018-09-13T01:25:20.184Z,91.95
2018-09-13T01:27:48.612Z,91.87
2018-09-13T01:30:17.192Z,91.85
2018-09-13T01:32:45.604Z,91.33
2018-09-13T01:35:13.948Z,91.35
2018-09-13T01:37:43.332Z,91.61
2018-09-13T01:40:11.689Z,91.46
2018-09-13T01:42:40.016Z,91.67
2018-09-13T01:45:08.385Z,91.06
2018-09-13T01:47:36.716Z,91.48
2018-09-13T01:50:05.121Z,91.82
2018-09-13T01:52:33.736Z,91.87
2018-09-13T01:55:02.092Z,92.06
2018-09-13T01:57:30.633Z,91.63
2018-09-13T01:59:58.992Z,92.07
2018-09-13T02:02:27.392Z,92.55
2018-09-13T02:04:55.756Z,92.48
2018-09-13T02:07:24.104Z,92.62
2018-09-13T02:09:52.425Z,92.41
2018-09-13T02:12:20.741Z,92.77
2018-09-13T02:14:49.084Z,93.57
2018-09-13T02:17:18.465Z,94.02
2018-09-13T02:19:46.771Z,93.78
2018-09-13T02:22:15.109Z,93.82
2018-09-13T02:24:43.437Z,93.71
2018-09-13T02:27:11.756Z,93.49
2018-09-13T02:29:40.099Z,93.97
2018-09-13T02:32:08.412Z,94.07
2018-09-13T02:34:36.733Z,93.43
2018-09-13T02:37:06.074Z,92.71
2018-09-13T02:39:34.392Z,92.67
2018-09-13T02:42:02.746Z,93.16
2018-09-13T02:44:31.089Z,92.67
2018-09-13T02:46:59.396Z,92.46
2018-09-13T02:49:27.773Z,92.18
2018-09-13T02:51:56.124Z,92.51
2018-09-13T02:54:24.508Z,93.33
2018-09-13T02:56:52.816Z,93.76
2018-09-13T02:59:21.229Z,94.00
2018-09-13T03:01:49.540Z,93.77
2018-09-13T03:04:17.844Z,93.49
2018-09-13T03:06:46.356Z,93.01
2018-09-13T03:09:14.672Z,93.23
2018-09-13T03:11:43.956Z,92.98
2018-09-13T03:14:12.803Z,92.46
2018-09-13T03:16:41.505Z,92.33
2018-09-13T03:19:09.871Z,92.20
2018-09-13T03:21:38.210Z,92.03
2018-09-13T03:24:06.538Z,92.15
2018-09-13T03:26:34.889Z,92.69
2018-09-13T03:29:03.265Z,93.48
2018-09-13T03:31:31.617Z,93.36
2018-09-13T03:33:59.969Z,93.50
2018-09-13T03:36:28.300Z,93.75
2018-09-13T03:38:56.616Z,93.43
2018-09-13T03:41:26.001Z,93.92
2018-09-13T03:43:54.321Z,94.62
2018-09-13T03:46:22.641Z,94.54
2018-09-13T03:48:50.953Z,94.24
2018-09-13T03:51:19.273Z,94.75
2018-09-13T03:53:47.588Z,94.61
2018-09-13T03:56:15.924Z,94.28
2018-09-13T03:58:44.292Z,95.03
2018-09-13T04:01:12.884Z,95.38
2018-09-13T04:03:41.244Z,94.24
2018-09-13T04:06:09.612Z,94.30
2018-09-13T04:08:37.986Z,94.38
2018-09-13T04:11:06.662Z,93.75
2018-09-13T04:13:35.017Z,93.17
2018-09-13T04:16:03.383Z,93.53
2018-09-13T04:18:31.713Z,93.39
2018-09-13T04:21:00.024Z,93.07
2018-09-13T04:23:28.385Z,93.64
2018-09-13T04:25:56.704Z,93.04
2018-09-13T04:28:25.009Z,92.98
2018-09-13T04:30:53.333Z,92.49
2018-09-13T04:33:23.668Z,92.51
2018-09-13T04:35:52.450Z,91.44
2018-09-13T04:38:20.640Z,91.63
2018-09-13T04:40:48.948Z,91.33
2018-09-13T04:43:17.312Z,90.77
2018-09-13T04:45:45.696Z,90.46
2018-09-13T04:48:14.102Z,90.39
2018-09-13T04:50:42.420Z,90.50
2018-09-13T04:53:10.816Z,90.69
2018-09-13T04:55:39.127Z,90.38
2018-09-13T04:58:07.469Z,90.75
2018-09-13T05:00:35.788Z,90.62
2018-09-13T05:03:04.116Z,90.54
2018-09-13T05:05:32.429Z,90.26
2018-09-13T05:08:00.768Z,90.49
2018-09-13T05:10:29.084Z,90.53
2018-09-13T05:12:57.526Z,90.03
2018-09-13T05:15:25.752Z,90.01
2018-09-13T05:17:54.081Z,88.84
2018-09-13T05:20:22.420Z,89.09
2018-09-13T05:22:50.740Z,88.52
2018-09-13T05:25:19.116Z,88.37
2018-09-13T05:27:48.524Z,88.32
2018-09-13T05:30:16.880Z,88.47
2018-09-13T05:32:45.719Z,88.05
2018-09-13T05:35:14.264Z,86.41
2018-09-13T05:37:42.640Z,87.19
2018-09-13T05:40:10.977Z,87.70
2018-09-13T05:42:39.309Z,87.21
2018-09-13T05:45:07.633Z,87.21
2018-09-13T05:47:35.964Z,85.75
2018-09-13T05:50:04.340Z,85.12
2018-09-13T05:52:32.676Z,84.57
2018-09-13T05:55:01.000Z,84.47
2018-09-13T05:57:29.615Z,84.55
2018-09-13T05:59:57.924Z,84.22
2018-09-13T06:02:26.277Z,83.80
2018-09-13T06:04:54.601Z,83.32
2018-09-13T06:07:22.940Z,83.19
2018-09-13T06:09:51.320Z,82.93
2018-09-13T06:12:19.656Z,82.59
2018-09-13T06:14:48.029Z,81.61
2018-09-13T06:17:16.412Z,80.99
2018-09-13T06:19:44.845Z,80.45
2018-09-13T06:22:13.247Z,80.14
2018-09-13T06:24:41.588Z,79.92
2018-09-13T06:27:11.033Z,79.47
2018-09-13T06:29:39.490Z,78.88
2018-09-13T06:32:07.761Z,78.45
2018-09-13T06:34:36.084Z,77.15
2018-09-13T06:37:04.444Z,76.06
2018-09-13T06:39:32.766Z,75.77
2018-09-13T06:42:01.216Z,76.18
2018-09-13T06:44:29.540Z,75.58
2018-09-13T06:46:57.878Z,75.16
2018-09-13T06:49:26.200Z,74.24
2018-09-13T06:51:54.548Z,73.86
2018-09-13T06:54:22.861Z,73.71
2018-09-13T06:56:51.193Z,71.62
2018-09-13T06:59:19.968Z,70.78
2018-09-13T07:01:48.304Z,69.15
2018-09-13T07:04:16.661Z,67.70
2018-09-13T07:06:44.980Z,65.23
2018-09-13T07:09:14.881Z,63.56
2018-09-13T07:11:44.188Z,62.48
2018-09-13T07:14:12.542Z,61.56
2018-09-13T07:16:44.063Z,63.21
2018-09-13T07:19:12.686Z,64.52
2018-09-13T07:21:41.315Z,65.99
2018-09-13T07:24:09.646Z,67.36
2018-09-13T07:26:38.212Z,67.78
2018-09-13T07:29:06.549Z,68.93
2018-09-13T07:31:34.853Z,68.48
2018-09-13T07:34:03.368Z,67.46
2018-09-13T07:36:31.688Z,66.68
2018-09-13T07:39:00.925Z,66.90
2018-09-13T07:41:29.292Z,65.59
2018-09-13T07:43:57.612Z,66.79
2018-09-13T07:46:25.997Z,66.25
2018-09-13T07:48:54.330Z,66.33
2018-09-13T07:51:22.661Z,64.62
2018-09-13T07:53:50.988Z,62.59
2018-09-13T07:56:20.355Z,62.28
2018-09-13T07:58:48.840Z,60.30
2018-09-13T08:01:17.191Z,60.03
2018-09-13T08:03:45.516Z,59.81
2018-09-13T08:06:13.840Z,59.97
2018-09-13T08:08:42.148Z,59.36
2018-09-13T08:11:10.460Z,56.87
2018-09-13T08:13:38.779Z,57.29
2018-09-13T08:16:07.103Z,55.72
2018-09-13T08:18:35.447Z,56.41
2018-09-13T08:21:03.872Z,55.12
2018-09-13T08:23:32.200Z,55.20
2018-09-13T08:26:00.637Z,54.13
2018-09-13T08:28:29.012Z,55.60
2018-09-13T08:30:58.336Z,56.22
2018-09-13T08:33:26.766Z,53.28
2018-09-13T08:35:56.003Z,53.66
2018-09-13T08:38:25.505Z,53.67
2018-09-13T08:40:53.927Z,53.72
2018-09-13T08:43:22.244Z,53.37
2018-09-13T08:45:50.791Z,53.09
2018-09-13T08:48:19.116Z,51.13
2018-09-13T08:50:47.510Z,50.67
2018-09-13T08:53:15.836Z,50.01
2018-09-13T08:55:44.144Z,49.35
2018-09-13T08:58:12.459Z,50.55
2018-09-13T09:00:40.826Z,51.49
2018-09-13T09:03:09.119Z,50.21
2018-09-13T09:05:37.560Z,50.70
2018-09-13T09:08:05.925Z,51.50
2018-09-13T09:10:34.247Z,51.26
2018-09-13T09:13:02.572Z,47.98
2018-09-13T09:15:31.951Z,46.82
2018-09-13T09:18:00.306Z,47.94
2018-09-13T09:20:28.869Z,48.53
2018-09-13T09:22:57.247Z,48.58
2018-09-13T09:25:25.614Z,50.04
2018-09-13T09:27:53.951Z,51.58
2018-09-13T09:30:22.333Z,50.15
2018-09-13T09:32:51.872Z,50.03
2018-09-13T09:35:20.209Z,50.77
2018-09-13T09:37:48.588Z,48.97
2018-09-13T09:40:16.925Z,47.95
2018-09-13T09:42:46.348Z,49.12
2018-09-13T09:45:15.874Z,50.32
2018-09-13T09:47:45.227Z,49.73
2018-09-13T09:50:13.654Z,48.74
2018-09-13T09:52:42.057Z,49.17
2018-09-13T09:55:10.390Z,49.37
2018-09-13T09:57:40.572Z,47.34
2018-09-13T10:00:08.968Z,48.05
2018-09-13T10:02:37.390Z,49.29
2018-09-13T10:05:05.748Z,49.29
2018-09-13T10:07:34.100Z,50.06
2018-09-13T10:10:02.476Z,49.67
2018-09-13T10:12:30.832Z,49.03
2018-09-13T10:15:04.393Z,47.80
2018-09-13T10:17:38.128Z,47.58
2018-09-13T10:20:11.682Z,47.36
2018-09-13T10:22:45.469Z,47.83
2018-09-13T10:30:26.201Z,46.84
2018-09-13T10:32:59.905Z,47.94
2018-09-13T10:35:33.653Z,48.29
2018-09-13T10:38:07.412Z,47.31
2018-09-13T10:40:41.245Z,47.44
2018-09-13T10:43:14.957Z,46.54
2018-09-13T10:45:48.698Z,47.48
2018-09-13T10:48:22.081Z,48.98
2018-09-13T10:50:55.609Z,49.67
2018-09-13T10:53:29.328Z,50.05
2018-09-13T10:55:57.708Z,52.08
2018-09-13T10:58:26.064Z,50.69
2018-09-13T11:00:54.447Z,50.28
2018-09-13T11:03:22.859Z,49.81
2018-09-13T11:05:51.204Z,47.15
2018-09-13T11:08:19.533Z,48.17
2018-09-13T11:10:48.203Z,49.06
2018-09-13T11:13:25.661Z,50.67
2018-09-13T11:15:54.021Z,50.29
2018-09-13T11:18:22.370Z,50.69
2018-09-13T11:20:51.760Z,49.20
2018-09-13T11:23:20.289Z,47.36
2018-09-13T11:25:48.692Z,46.42
2018-09-13T11:28:17.025Z,45.42
2018-09-13T11:30:47.942Z,44.86
2018-09-13T11:33:16.276Z,43.98
2018-09-13T11:35:44.706Z,45.15
2018-09-13T11:38:13.068Z,46.38
2018-09-13T11:40:41.640Z,46.02
2018-09-13T11:43:09.736Z,47.32
2018-09-13T11:45:38.280Z,47.79
2018-09-13T11:48:06.681Z,47.09
2018-09-13T11:50:35.097Z,46.33
2018-09-13T11:53:03.513Z,44.22
2018-09-13T11:55:31.856Z,43.38
2018-09-13T11:58:01.356Z,44.58
2018-09-13T12:00:29.965Z,44.33
2018-09-13T12:02:58.345Z,44.62
2018-09-13T12:05:26.788Z,44.19
2018-09-13T12:07:55.148Z,44.69
2018-09-13T12:10:23.476Z,45.11
2018-09-13T12:12:52.543Z,44.77
2018-09-13T12:15:21.037Z,44.35
2018-09-13T12:17:49.418Z,43.53
2018-09-13T12:20:18.588Z,43.89
2018-09-13T12:22:46.968Z,42.10
2018-09-13T12:25:15.365Z,41.83
2018-09-13T12:27:43.720Z,41.49
2018-09-13T12:30:13.072Z,41.26
2018-09-13T12:32:41.669Z,41.31
2018-09-13T12:35:09.996Z,41.18
2018-09-13T12:37:39.453Z,40.35
2018-09-13T12:40:08.405Z,40.64
2018-09-13T12:42:36.897Z,40.60
2018-09-13T12:45:05.592Z,41.05
2018-09-13T12:47:33.944Z,40.71
2018-09-13T12:50:02.337Z,40.08
2018-09-13T12:52:30.656Z,40.38
2018-09-13T12:54:58.989Z,40.98
2018-09-13T12:57:27.404Z,42.79
2018-09-13T12:59:55.744Z,41.70
2018-09-13T13:02:24.129Z,41.05
2018-09-13T13:04:52.469Z,41.60
2018-09-13T13:07:20.832Z,42.21
2018-09-13T13:09:50.244Z,43.23
2018-09-13T13:12:18.600Z,42.04
2018-09-13T13:14:47.109Z,41.30
2018-09-13T13:17:15.489Z,41.78
2018-09-13T13:19:43.830Z,41.28
2018-09-13T13:22:12.349Z,40.07
2018-09-13T13:24:40.787Z,41.01
2018-09-13T13:27:09.102Z,42.45
2018-09-13T13:29:37.851Z,43.35
2018-09-13T13:32:06.915Z,44.64
2018-09-13T13:34:36.356Z,45.08
2018-09-13T13:37:05.172Z,44.83
2018-09-13T13:39:33.496Z,43.97
2018-09-13T13:42:01.873Z,44.57
2018-09-13T13:44:30.413Z,44.29
2018-09-13T13:46:58.751Z,42.75
2018-09-13T13:49:29.086Z,41.51
2018-09-13T13:51:58.432Z,41.78
2018-09-13T13:54:26.759Z,41.34
2018-09-13T13:56:55.079Z,41.18
2018-09-13T13:59:23.569Z,41.27
2018-09-13T14:01:52.260Z,41.86
2018-09-13T14:04:20.576Z,41.84
2018-09-13T14:06:48.952Z,41.67
2018-09-13T14:09:17.271Z,43.41
2018-09-13T14:11:45.600Z,44.96
2018-09-13T14:14:13.980Z,46.60
2018-09-13T14:16:42.291Z,47.99
2018-09-13T14:19:10.605Z,48.54
2018-09-13T14:21:38.962Z,48.34
2018-09-13T14:24:07.340Z,48.23
2018-09-13T14:26:35.656Z,48.09
2018-09-13T14:29:04.007Z,47.22
2018-09-13T14:31:32.360Z,46.41
2018-09-13T14:34:00.673Z,45.50
2018-09-13T14:36:29.036Z,45.24
2018-09-13T14:38:57.372Z,43.57
2018-09-13T14:41:25.710Z,43.03
2018-09-13T14:43:54.067Z,42.18
2018-09-13T14:46:22.415Z,38.11
2018-09-13T14:48:50.741Z,36.63
2018-09-13T14:51:19.708Z,37.29
2018-09-13T14:53:48.028Z,38.26
2018-09-13T14:56:16.390Z,37.23
2018-09-13T14:58:45.032Z,36.09
2018-09-13T15:01:13.345Z,38.45
2018-09-13T15:03:41.664Z,41.35
2018-09-13T15:06:10.096Z,41.62
2018-09-13T15:08:38.431Z,42.40
2018-09-13T15:11:06.769Z,41.63
2018-09-13T15:13:35.117Z,37.11
2018-09-13T15:16:03.449Z,32.29
2018-09-13T15:18:31.764Z,27.30
2018-09-13T15:21:00.272Z,24.65
2018-09-13T15:23:28.701Z,22.31
2018-09-13T15:25:57.116Z,21.35
2018-09-13T15:28:25.456Z,20.57
2018-09-13T15:30:53.937Z,20.07
2018-09-13T15:33:22.424Z,20.20
2018-09-13T15:35:50.756Z,23.20
2018-09-13T15:38:19.192Z,29.05
2018-09-13T15:40:47.532Z,33.71
2018-09-13T15:43:15.857Z,38.67
2018-09-13T15:45:44.193Z,40.98
2018-09-13T15:48:12.540Z,36.14
2018-09-13T15:50:40.857Z,37.91
2018-09-13T15:53:09.192Z,37.90
2018-09-13T15:55:37.508Z,38.41
2018-09-13T15:58:07.136Z,36.06
2018-09-13T16:00:35.453Z,39.60
2018-09-13T16:03:03.789Z,42.63
2018-09-13T16:05:32.139Z,43.59
2018-09-13T16:08:00.514Z,41.09
2018-09-13T16:10:28.859Z,35.46
2018-09-13T16:12:58.352Z,34.12
2018-09-13T16:15:26.604Z,31.58
2018-09-13T16:17:54.956Z,31.10
2018-09-13T16:20:26.228Z,33.02
2018-09-13T16:22:52.643Z,30.56
2018-09-13T16:25:20.979Z,30.71
2018-09-13T16:27:49.292Z,34.55
2018-09-13T16:30:17.613Z,36.40
2018-09-13T16:32:45.975Z,34.54
2018-09-13T16:35:14.454Z,34.21
2018-09-13T16:37:51.266Z,33.13
2018-09-13T16:40:24.765Z,34.09
2018-09-13T16:42:59.232Z,38.53
2018-09-13T16:45:28.632Z,40.46
2018-09-13T16:48:01.400Z,41.18
2018-09-13T16:50:29.793Z,43.09
2018-09-13T16:52:58.168Z,44.63
2018-09-13T16:55:26.473Z,46.70
2018-09-13T16:57:54.816Z,46.27
2018-09-13T17:00:24.475Z,47.33
2018-09-13T17:02:53.000Z,48.08
2018-09-13T17:05:21.388Z,48.07
2018-09-13T17:07:49.712Z,48.35
2018-09-13T17:10:18.051Z,49.57
2018-09-13T17:12:46.781Z,50.57
2018-09-13T17:15:15.141Z,50.12
2018-09-13T17:17:43.533Z,50.72
2018-09-13T17:20:11.978Z,50.83
2018-09-13T17:22:40.294Z,51.29
2018-09-13T17:25:08.657Z,51.30
2018-09-13T17:27:37.001Z,51.47
2018-09-13T17:30:05.907Z,51.21
2018-09-13T17:32:34.258Z,52.23
2018-09-13T17:35:02.572Z,52.38
2018-09-13T17:37:30.907Z,52.40
2018-09-13T17:39:59.248Z,52.84
2018-09-13T17:42:27.556Z,53.15
2018-09-13T17:44:56.059Z,53.16
2018-09-13T17:47:24.680Z,53.69
2018-09-13T17:49:54.346Z,53.79
2018-09-13T17:52:22.669Z,54.32
2018-09-13T17:54:51.092Z,54.94
2018-09-13T17:57:20.453Z,56.21
2018-09-13T17:59:48.816Z,56.19
2018-09-13T18:02:18.338Z,56.23
2018-09-13T18:04:46.665Z,55.73
2018-09-13T18:07:15.001Z,56.17
2018-09-13T18:09:43.366Z,56.80
2018-09-13T18:12:11.702Z,57.04
2018-09-13T18:14:40.041Z,56.27
2018-09-13T18:17:08.402Z,56.63
2018-09-13T18:19:36.745Z,57.11
2018-09-13T18:22:05.100Z,57.32
2018-09-13T18:24:33.473Z,57.47
2018-09-13T18:27:01.934Z,58.30
2018-09-13T18:29:30.261Z,58.46
2018-09-13T18:31:59.815Z,59.00
2018-09-13T18:34:28.149Z,58.63
2018-09-13T18:36:56.481Z,59.46
2018-09-13T18:39:24.808Z,59.69
2018-09-13T18:41:53.137Z,59.68
2018-09-13T18:44:21.498Z,59.98
2018-09-13T18:46:49.837Z,60.19
2018-09-13T18:49:18.178Z,60.71
2018-09-13T18:51:46.533Z,61.90
2018-09-13T18:54:14.893Z,61.76
2018-09-13T18:56:43.213Z,61.25
2018-09-13T18:59:11.761Z,62.32
2018-09-13T19:01:40.285Z,62.83
2018-09-13T19:04:08.646Z,63.04
2018-09-13T19:06:37.192Z,63.56
2018-09-13T19:09:08.124Z,63.35
2018-09-13T19:11:36.574Z,63.86
2018-09-13T19:14:05.139Z,63.92
2018-09-13T19:16:33.460Z,63.99
2018-09-13T19:19:01.785Z,64.10
2018-09-13T19:21:30.118Z,64.37
2018-09-13T19:23:58.454Z,64.55
2018-09-13T19:26:26.792Z,65.02
2018-09-13T19:28:55.109Z,65.23
2018-09-13T19:31:23.436Z,65.29
2018-09-13T19:33:51.744Z,65.76
2018-09-13T19:36:20.068Z,65.99
2018-09-13T19:38:49.416Z,65.82
2018-09-13T19:41:17.848Z,67.23
2018-09-13T19:43:46.224Z,67.50
2018-09-13T19:46:14.566Z,67.69
2018-09-13T19:48:42.886Z,67.71
2018-09-13T19:51:11.259Z,68.02
2018-09-13T19:53:39.580Z,68.20
2018-09-13T19:56:07.956Z,68.22
2018-09-13T19:58:37.361Z,68.76
2018-09-13T20:01:05.724Z,69.30
2018-09-13T20:03:35.155Z,70.07
2018-09-13T20:06:03.584Z,69.65
2018-09-13T20:08:32.011Z,70.08
2018-09-13T20:11:00.369Z,70.98
2018-09-13T20:13:28.693Z,70.77
2018-09-13T20:15:57.040Z,71.10
2018-09-13T20:18:25.413Z,70.86
2018-09-13T20:20:53.748Z,71.45
2018-09-13T20:23:22.065Z,71.41
2018-09-13T20:25:50.409Z,71.60
2018-09-13T20:28:18.773Z,71.20
2018-09-13T20:30:47.104Z,71.66
2018-09-13T20:33:15.648Z,71.53
2018-09-13T20:35:43.991Z,71.55
2018-09-13T20:38:12.310Z,72.06
2018-09-13T20:40:40.632Z,72.29
2018-09-13T20:43:08.948Z,71.78
2018-09-13T20:45:38.334Z,72.32
2018-09-13T20:48:06.721Z,72.63
2018-09-13T20:50:35.164Z,72.61
2018-09-13T20:53:03.501Z,72.32
2018-09-13T20:55:31.917Z,72.63
2018-09-13T20:58:00.245Z,72.85
2018-09-13T21:00:28.621Z,73.00
2018-09-13T21:02:56.952Z,73.17
2018-09-13T21:05:25.300Z,72.62
2018-09-13T21:07:53.649Z,73.67
2018-09-13T21:10:22.073Z,73.18
2018-09-13T21:12:50.408Z,73.74
2018-09-13T21:15:19.768Z,73.84
2018-09-13T21:17:48.097Z,73.21
2018-09-13T21:20:17.555Z,73.54
2018-09-13T21:22:45.891Z,73.44
2018-09-13T21:25:14.237Z,73.99
2018-09-13T21:27:42.549Z,74.09
2018-09-13T21:30:10.973Z,74.91
2018-09-13T21:32:39.472Z,75.13
2018-09-13T21:35:07.786Z,74.46
2018-09-13T21:37:36.128Z,74.74
2018-09-13T21:40:04.501Z,74.30
2018-09-13T21:42:32.820Z,74.84
2018-09-13T21:45:01.477Z,75.35
2018-09-13T21:47:29.817Z,75.93
2018-09-13T21:49:58.155Z,76.20
2018-09-13T21:52:26.480Z,76.20
2018-09-13T21:54:54.900Z,76.15
2018-09-13T21:57:23.240Z,76.98
2018-09-13T21:59:51.568Z,75.79
2018-09-13T22:02:19.918Z,76.40
2018-09-13T22:04:48.244Z,76.49
2018-09-13T22:07:16.601Z,76.43
2018-09-13T22:09:44.921Z,76.31
2018-09-13T22:12:13.528Z,76.37
2018-09-13T22:14:42.028Z,76.65
2018-09-13T22:17:10.827Z,76.81
2018-09-13T22:19:39.170Z,76.81
2018-09-13T22:22:07.572Z,76.55
2018-09-13T22:24:35.913Z,76.88
2018-09-13T22:27:04.267Z,77.22
2018-09-13T22:29:32.696Z,77.97
2018-09-13T22:32:01.115Z,77.19
2018-09-13T22:34:29.476Z,76.99
2018-09-13T22:36:58.120Z,77.69
2018-09-13T22:39:26.436Z,77.55
2018-09-13T22:41:54.763Z,77.80
2018-09-13T22:44:23.116Z,78.25
2018-09-13T22:46:51.468Z,77.96
2018-09-13T22:49:19.779Z,78.25
2018-09-13T22:51:48.407Z,77.98
2018-09-13T22:54:16.723Z,78.37
2018-09-13T22:56:45.036Z,78.17
2018-09-13T22:59:13.377Z,78.86
2018-09-13T23:01:41.703Z,79.29
2018-09-13T23:04:10.032Z,79.47
2018-09-13T23:06:39.825Z,79.80
2018-09-13T23:09:09.972Z,78.77
2018-09-13T23:11:38.301Z,79.02
2018-09-13T23:14:06.656Z,79.25
2018-09-13T23:16:34.984Z,79.83
2018-09-13T23:19:03.317Z,80.18
2018-09-13T23:21:31.885Z,79.66
2018-09-13T23:24:00.335Z,79.93
2018-09-13T23:26:28.656Z,79.31
2018-09-13T23:28:57.416Z,79.47
2018-09-13T23:31:25.740Z,80.22
2018-09-13T23:33:54.525Z,79.49
2018-09-13T23:36:23.036Z,79.89
2018-09-13T23:38:51.388Z,80.36
2018-09-13T23:41:19.796Z,80.86
2018-09-13T23:43:48.137Z,81.50
2018-09-13T23:46:17.555Z,81.94
2018-09-13T23:48:46.077Z,81.70
2018-09-13T23:51:14.404Z,81.26
2018-09-13T23:53:42.732Z,81.79
2018-09-13T23:56:11.052Z,82.36
2018-09-13T23:58:39.388Z,82.14
